Nenana, Alaska
Current Conditions -  °F | °C
As of 10:53 PM on Thursday 18 Dec 2014 (Local Time) from PANN Reporting Station
Clear Clear  
Wind Chill: -5°   Ceiling: Unl
Heat Index: -5°   Visibility: 10mi
Dew Point: -10°   Wind: 0mph
Humidity: 80%   Direction: NA
Pressure: 29.44"   Gusts: NA
Location:  64.56°N, 149.1°W
Report Text: PANN 190753Z AUTO 00000KT 10SM CLR M21/M23 A2944 RMK AO2 SLP981 T12061233 TSNO
Loading
Personal Weather Stations






























Interactive Weather Map New forecast layout! Learn more

10-Day Weather Forecast

Advertisements
Track Severe Weather on mobile